Time;durP1;ratioP1;P1;durP2;ratioP2;P2;SDS_P1;SDS_P2;PMS_P1;PMS_P2;Temp;Humidity;BMP_temperature;BMP_pressure;BME280_temperature;BME280_humidity;BME280_pressure;Samples;Min_cycle;Max_cycle;Signal;HPM_P1;HPM_P2
2023/05/19 00:00:31;;;;;;;164.75;60.15;;;;;;;16.67;44.39;102674.94;4997193;28;20025;-71
2023/05/19 00:02:59;;;;;;;166.48;60.17;;;;;;;16.66;44.25;102678.50;4996440;28;20109;-71
2023/05/19 00:05:26;;;;;;;167.10;61.95;;;;;;;16.66;44.68;102685.50;4987967;28;20032;-71
2023/05/19 00:07:56;;;;;;;162.23;60.05;;;;;;;16.65;44.92;102684.66;5011668;28;20549;-71
2023/05/19 00:10:22;;;;;;;161.18;58.85;;;;;;;16.65;44.32;102689.91;5002472;28;20411;-71
2023/05/19 00:12:48;;;;;;;162.77;60.70;;;;;;;16.62;44.76;102679.41;4995212;28;20040;-71
2023/05/19 00:15:14;;;;;;;172.98;62.22;;;;;;;16.63;44.10;102681.13;4986109;28;20049;-70
2023/05/19 00:17:41;;;;;;;162.35;59.85;;;;;;;16.62;44.51;102684.69;5004460;28;20026;-71
2023/05/19 00:20:07;;;;;;;174.35;62.83;;;;;;;16.63;44.81;102681.13;4989533;28;20034;-71
2023/05/19 00:22:33;;;;;;;163.52;61.45;;;;;;;16.62;44.72;102676.78;4996647;28;20084;-70
2023/05/19 00:24:58;;;;;;;161.77;59.75;;;;;;;16.61;44.63;102676.78;4996900;28;20029;-71
2023/05/19 00:27:24;;;;;;;159.25;60.25;;;;;;;16.58;44.82;102672.41;5012953;28;20100;-72
2023/05/19 00:29:49;;;;;;;159.63;59.53;;;;;;;16.60;44.61;102670.63;4996469;28;20109;-71
2023/05/19 00:32:14;;;;;;;161.52;60.10;;;;;;;16.60;44.29;102670.63;4996948;28;20025;-71
2023/05/19 00:34:40;;;;;;;160.98;60.25;;;;;;;16.58;44.54;102667.13;4991826;28;20072;-71
2023/05/19 00:37:05;;;;;;;162.93;60.70;;;;;;;16.59;44.88;102682.06;5005393;28;20021;-70
2023/05/19 00:39:31;;;;;;;175.65;63.13;;;;;;;16.57;44.23;102673.28;5013205;28;20034;-71
2023/05/19 00:41:56;;;;;;;165.32;59.40;;;;;;;16.58;44.86;102661.84;4995654;28;20256;-72
2023/05/19 00:44:21;;;;;;;194.10;64.25;;;;;;;16.57;44.82;102662.75;5011648;28;20014;-72
2023/05/19 00:46:47;;;;;;;163.15;59.80;;;;;;;16.57;44.70;102660.09;4995848;28;20406;-72
2023/05/19 00:49:12;;;;;;;165.13;60.65;;;;;;;16.55;44.38;102660.13;5014319;28;20379;-73
2023/05/19 00:51:38;;;;;;;163.95;60.03;;;;;;;16.55;44.78;102661.88;4992212;28;20487;-71
2023/05/19 00:54:04;;;;;;;163.85;60.35;;;;;;;16.55;44.91;102661.88;4993758;28;20022;-71
2023/05/19 00:56:30;;;;;;;158.35;59.88;;;;;;;16.54;44.78;102665.41;4983965;28;20052;-72
2023/05/19 00:58:56;;;;;;;162.63;59.95;;;;;;;16.53;44.11;102661.88;4996445;28;20133;-70
2023/05/19 01:01:21;;;;;;;161.80;59.60;;;;;;;16.53;44.71;102658.38;5005285;28;20053;-70
2023/05/19 01:03:46;;;;;;;162.77;60.20;;;;;;;16.53;44.74;102668.94;4997027;28;20036;-71
2023/05/19 01:06:12;;;;;;;178.20;61.58;;;;;;;16.53;44.67;102663.66;5029938;22;20377;-71
2023/05/19 01:08:38;;;;;;;154.57;58.72;;;;;;;16.53;44.64;102663.66;5033857;28;20068;-71
2023/05/19 01:11:05;;;;;;;172.75;61.58;;;;;;;16.52;44.81;102656.63;5026937;28;20055;-70
2023/05/19 01:13:31;;;;;;;153.15;57.85;;;;;;;16.51;44.78;102666.31;5026241;28;20030;-70
2023/05/19 01:16:11;;;;;;;166.38;61.17;;;;;;;16.51;44.48;102666.31;5014797;28;20043;-70
2023/05/19 01:18:43;;;;;;;166.05;60.72;;;;;;;16.50;44.58;102664.56;5022172;28;20030;-71
2023/05/19 01:21:11;;;;;;;164.40;59.83;;;;;;;16.50;44.81;102674.25;5025619;28;20021;-71
2023/05/19 01:23:52;;;;;;;168.40;61.05;;;;;;;16.50;44.57;102668.97;5030200;28;20460;-71
2023/05/19 01:27:09;;;;;;;168.18;61.30;;;;;;;16.50;44.95;102666.34;5034252;28;20215;-71
2023/05/19 01:29:42;;;;;;;159.73;58.13;;;;;;;16.48;44.53;102665.47;5006929;28;20386;-70
2023/05/19 01:32:08;;;;;;;164.25;59.53;;;;;;;16.48;44.45;102665.47;5016783;28;20024;-71
2023/05/19 01:34:38;;;;;;;165.32;59.40;;;;;;;16.48;44.78;102662.81;5034228;28;20166;-70
2023/05/19 01:37:04;;;;;;;163.82;59.20;;;;;;;16.46;44.91;102662.84;5010380;28;20481;-70
2023/05/19 01:39:30;;;;;;;169.02;60.10;;;;;;;16.44;44.84;102659.34;5032721;28;20025;-71
2023/05/19 01:41:56;;;;;;;166.25;60.25;;;;;;;16.46;44.47;102661.97;5051540;28;20056;-70
2023/05/19 01:44:22;;;;;;;172.27;60.40;;;;;;;16.46;44.74;102667.25;4999477;28;20486;-70
2023/05/19 01:46:48;;;;;;;162.27;59.15;;;;;;;16.44;44.46;102664.59;5018961;28;20025;-70
2023/05/19 01:49:13;;;;;;;173.48;60.83;;;;;;;16.44;44.69;102674.28;5032908;28;20028;-70
2023/05/19 01:51:39;;;;;;;168.65;60.00;;;;;;;16.42;44.63;102665.53;5042806;28;20393;-70
2023/05/19 01:54:05;;;;;;;169.57;60.45;;;;;;;16.42;44.56;102674.31;5034058;28;20079;-70
2023/05/19 01:56:41;;;;;;;168.40;60.17;;;;;;;16.42;44.74;102678.72;5038985;28;20037;-70
2023/05/19 01:59:27;;;;;;;156.57;58.13;;;;;;;16.42;44.87;102681.38;5033160;28;20074;-71
2023/05/19 02:01:53;;;;;;;179.98;61.55;;;;;;;16.42;44.62;102687.50;5032135;28;20025;-70
2023/05/19 02:04:29;;;;;;;175.98;61.20;;;;;;;16.41;44.82;102684.88;5013504;28;20021;-70
2023/05/19 02:07:00;;;;;;;161.27;59.20;;;;;;;16.39;44.97;102682.25;5018762;28;20118;-70
2023/05/19 02:09:34;;;;;;;168.27;60.42;;;;;;;16.39;44.95;102683.13;5031567;28;20021;-70
2023/05/19 02:12:07;;;;;;;162.95;59.75;;;;;;;16.38;44.66;102676.09;5031533;28;20231;-70
2023/05/19 02:15:03;;;;;;;178.07;61.08;;;;;;;16.37;44.91;102674.38;5049730;28;20032;-71
2023/05/19 02:17:32;;;;;;;161.93;58.88;;;;;;;16.36;45.06;102672.63;5035166;28;20037;-69
2023/05/19 02:19:58;;;;;;;178.63;61.22;;;;;;;16.36;44.70;102669.97;5030673;28;20024;-70
2023/05/19 02:22:23;;;;;;;161.65;58.45;;;;;;;16.36;44.61;102672.63;5032739;28;20462;-71
2023/05/19 02:24:50;;;;;;;162.68;59.22;;;;;;;16.36;44.61;102666.44;5033310;28;20433;-70
2023/05/19 02:27:16;;;;;;;173.32;60.78;;;;;;;16.35;44.77;102670.00;5045722;28;20032;-71
2023/05/19 02:29:41;;;;;;;158.23;58.78;;;;;;;16.35;44.84;102664.72;5050288;28;20358;-70
2023/05/19 02:32:07;;;;;;;178.30;61.50;;;;;;;16.34;44.83;102661.19;5016899;28;20104;-70
2023/05/19 02:34:32;;;;;;;160.48;59.30;;;;;;;16.33;44.96;102664.75;5013019;28;20108;-70
2023/05/19 02:36:58;;;;;;;163.35;58.67;;;;;;;16.32;44.97;102655.06;5036964;28;20127;-70
2023/05/19 02:39:23;;;;;;;169.45;60.55;;;;;;;16.33;44.91;102655.94;5032647;28;20021;-70
2023/05/19 02:41:48;;;;;;;173.45;60.45;;;;;;;16.32;44.36;102654.19;5032997;28;20039;-71
2023/05/19 02:44:14;;;;;;;196.52;63.92;;;;;;;16.32;44.82;102659.44;5031962;28;20029;-70
2023/05/19 02:46:39;;;;;;;169.35;60.00;;;;;;;16.31;45.05;102653.31;5022768;28;20025;-71
2023/05/19 02:49:05;;;;;;;159.68;58.33;;;;;;;16.32;44.93;102659.44;5050088;28;20021;-70
2023/05/19 02:51:30;;;;;;;174.05;59.97;;;;;;;16.32;45.10;102664.72;5031409;28;20394;-69
2023/05/19 02:53:56;;;;;;;164.30;59.50;;;;;;;16.32;44.91;102660.34;5032440;28;20029;-70
2023/05/19 02:56:21;;;;;;;176.63;60.45;;;;;;;16.32;44.94;102654.19;5048889;28;20048;-71
2023/05/19 02:58:46;;;;;;;161.63;58.05;;;;;;;16.31;44.79;102653.31;5049628;28;20017;-70
2023/05/19 03:01:12;;;;;;;153.07;57.92;;;;;;;16.30;44.88;102651.56;5033347;28;20174;-71
2023/05/19 03:03:37;;;;;;;160.68;59.08;;;;;;;16.31;44.67;102655.09;5008507;28;20482;-71
2023/05/19 03:06:03;;;;;;;159.85;58.40;;;;;;;16.31;44.67;102647.19;5012839;28;20409;-70
2023/05/19 03:08:29;;;;;;;159.15;58.90;;;;;;;16.31;45.05;102647.19;5027744;28;20482;-71
2023/05/19 03:10:54;;;;;;;164.35;59.22;;;;;;;16.30;44.96;102635.75;5044329;28;20076;-71
2023/05/19 03:13:19;;;;;;;165.48;60.15;;;;;;;16.29;44.96;102647.19;5026092;28;20498;-70
2023/05/19 03:15:45;;;;;;;174.57;61.65;;;;;;;16.30;45.17;102646.28;5049510;28;20486;-70
2023/05/19 03:18:13;;;;;;;161.63;59.25;;;;;;;16.30;44.99;102641.00;5049413;28;20075;-70
2023/05/19 03:20:41;;;;;;;184.57;62.97;;;;;;;16.30;44.86;102640.16;5029969;28;20439;-70
2023/05/19 03:23:07;;;;;;;165.82;60.03;;;;;;;16.29;44.71;102639.28;5037668;28;20029;-70
2023/05/19 03:25:32;;;;;;;162.90;59.38;;;;;;;16.29;45.08;102639.28;5039296;28;20477;-70
2023/05/19 03:27:58;;;;;;;182.63;62.58;;;;;;;16.31;44.53;102631.34;5036608;28;20029;-72
2023/05/19 03:30:23;;;;;;;161.90;59.40;;;;;;;16.31;44.78;102632.22;5038984;28;20167;-70
2023/05/19 03:32:50;;;;;;;162.10;59.85;;;;;;;16.31;44.53;102637.50;5056852;28;20119;-71
2023/05/19 03:35:16;;;;;;;163.15;59.90;;;;;;;16.29;44.79;102634.00;5028944;28;20020;-70
2023/05/19 03:37:41;;;;;;;160.20;59.42;;;;;;;16.31;44.94;102631.34;5055780;28;20539;-70
2023/05/19 03:40:07;;;;;;;167.10;60.38;;;;;;;16.31;44.67;102637.50;5039175;28;20048;-70
2023/05/19 03:42:33;;;;;;;163.40;59.75;;;;;;;16.31;44.97;102637.50;5005304;28;20490;-71
2023/05/19 03:44:58;;;;;;;162.15;59.40;;;;;;;16.32;44.63;102641.00;5019254;28;20083;-70
2023/05/19 03:47:23;;;;;;;157.27;57.83;;;;;;;16.33;44.64;102643.63;5043529;28;20029;-70
2023/05/19 03:49:49;;;;;;;165.65;59.58;;;;;;;16.33;44.76;102634.84;5032902;28;20059;-70
2023/05/19 03:52:14;;;;;;;161.60;59.05;;;;;;;16.34;44.61;102641.88;5039115;28;20390;-71
2023/05/19 03:54:41;;;;;;;169.23;60.72;;;;;;;16.34;44.35;102644.50;5036670;28;20383;-70
2023/05/19 03:57:07;;;;;;;164.00;59.72;;;;;;;16.35;44.77;102648.91;5037770;28;20027;-70
2023/05/19 03:59:34;;;;;;;176.35;61.70;;;;;;;16.36;45.17;102646.25;5036763;28;20016;-70
2023/05/19 04:01:59;;;;;;;163.20;58.88;;;;;;;16.37;44.69;102648.00;5019235;28;20039;-70
2023/05/19 04:04:25;;;;;;;177.30;62.20;;;;;;;16.38;44.64;102655.00;5055841;28;20024;-71
2023/05/19 04:06:50;;;;;;;161.52;58.83;;;;;;;16.39;44.98;102655.88;5051286;28;20041;-70
2023/05/19 04:09:16;;;;;;;168.70;59.63;;;;;;;16.42;44.67;102655.00;5038513;28;20074;-70
2023/05/19 04:11:41;;;;;;;165.90;59.78;;;;;;;16.42;44.25;102658.50;5056134;28;20020;-70
2023/05/19 04:14:07;;;;;;;174.35;60.92;;;;;;;16.45;44.39;102660.22;5037646;28;20103;-69
2023/05/19 04:16:33;;;;;;;155.85;58.67;;;;;;;16.47;44.55;102663.72;5038421;28;20385;-71
2023/05/19 04:18:58;;;;;;;161.23;59.28;;;;;;;16.47;44.46;102663.72;5037975;28;20025;-70
2023/05/19 04:21:24;;;;;;;168.32;61.58;;;;;;;16.50;44.79;102655.78;5039090;28;20032;-71
2023/05/19 04:23:49;;;;;;;166.90;60.85;;;;;;;16.52;44.17;102668.06;5048066;28;20025;-70
2023/05/19 04:26:15;;;;;;;154.48;60.55;;;;;;;16.53;44.40;102661.03;5050848;28;20193;-71
2023/05/19 04:28:43;;;;;;;160.25;59.88;;;;;;;16.53;44.46;102659.25;5038822;28;20033;-70
2023/05/19 04:31:09;;;;;;;160.90;60.08;;;;;;;16.55;44.08;102659.22;5019566;28;20107;-70
2023/05/19 04:33:36;;;;;;;162.77;59.42;;;;;;;16.56;43.94;102661.88;5030781;28;20025;-71
2023/05/19 04:36:04;;;;;;;166.95;60.45;;;;;;;16.57;43.98;102668.03;5029823;28;20373;-70
2023/05/19 04:38:30;;;;;;;168.85;60.25;;;;;;;16.58;44.35;102664.50;5035446;28;20485;-70
2023/05/19 04:40:55;;;;;;;175.15;62.65;;;;;;;16.59;44.00;102662.72;5023910;28;20036;-71
2023/05/19 04:43:21;;;;;;;163.75;60.70;;;;;;;16.60;44.07;102660.06;5028258;28;20021;-71
2023/05/19 04:45:49;;;;;;;161.68;59.15;;;;;;;16.62;44.19;102660.94;5034676;28;20036;-69
2023/05/19 04:48:14;;;;;;;163.00;60.97;;;;;;;16.64;44.07;102659.16;5035400;28;20017;-71
2023/05/19 04:50:41;;;;;;;161.77;59.55;;;;;;;16.65;44.00;102663.53;5035398;28;20413;-71
2023/05/19 04:53:07;;;;;;;163.60;60.65;;;;;;;16.67;44.05;102661.75;5032917;28;20474;-70
2023/05/19 04:55:33;;;;;;;162.02;59.95;;;;;;;16.68;43.98;102658.22;5047544;28;20025;-71
2023/05/19 04:57:58;;;;;;;164.30;62.15;;;;;;;16.71;43.64;102662.59;5012611;28;20505;-70
2023/05/19 05:00:24;;;;;;;164.25;61.60;;;;;;;16.71;43.76;102657.31;5015405;28;20505;-71
2023/05/19 05:02:49;;;;;;;159.75;59.42;;;;;;;16.73;43.95;102659.06;5005767;28;20025;-72
2023/05/19 05:05:15;;;;;;;177.27;64.65;;;;;;;16.75;43.76;102660.81;5052146;28;20019;-70
2023/05/19 05:07:40;;;;;;;165.38;61.50;;;;;;;16.77;44.11;102666.94;5025039;28;20556;-70
2023/05/19 05:10:06;;;;;;;164.55;61.78;;;;;;;16.78;43.32;102663.41;5034968;28;20606;-71
2023/05/19 05:12:31;;;;;;;169.13;61.72;;;;;;;16.79;43.85;102667.81;5016848;28;20452;-70
2023/05/19 05:14:57;;;;;;;156.93;61.05;;;;;;;16.81;43.67;102668.63;5052416;28;20091;-70
2023/05/19 05:17:24;;;;;;;161.80;61.45;;;;;;;16.82;43.30;102659.84;5052411;28;20029;-70
2023/05/19 05:19:50;;;;;;;165.18;62.13;;;;;;;16.84;43.56;102652.78;5034012;28;20017;-70
2023/05/19 05:22:15;;;;;;;165.38;62.03;;;;;;;16.85;43.33;102663.31;5033700;28;20516;-70
2023/05/19 05:24:41;;;;;;;168.63;62.30;;;;;;;16.86;43.49;102662.41;5032979;28;20025;-71
2023/05/19 05:27:07;;;;;;;164.82;62.28;;;;;;;16.90;43.42;102665.94;5052446;28;20029;-71
2023/05/19 05:29:32;;;;;;;160.00;60.22;;;;;;;16.92;43.10;102661.53;5031266;28;20032;-71
2023/05/19 05:31:57;;;;;;;168.80;62.33;;;;;;;16.96;43.08;102667.63;5050188;28;20020;-71
2023/05/19 05:34:23;;;;;;;164.95;61.80;;;;;;;16.98;43.50;102665.84;5051371;28;20025;-70
2023/05/19 05:36:48;;;;;;;169.02;61.92;;;;;;;17.01;43.09;102664.03;5034041;28;20083;-71
2023/05/19 05:39:14;;;;;;;167.80;60.83;;;;;;;17.03;42.80;102659.63;5034275;28;20203;-71
2023/05/19 05:41:39;;;;;;;159.70;61.35;;;;;;;17.06;43.40;102666.63;5045491;28;20051;-71
2023/05/19 05:44:04;;;;;;;169.90;61.53;;;;;;;17.09;43.17;102663.09;5027630;28;20025;-71
2023/05/19 05:46:30;;;;;;;162.38;62.05;;;;;;;17.13;43.38;102670.09;5034002;28;20408;-71
2023/05/19 05:48:56;;;;;;;164.48;61.80;;;;;;;17.14;42.77;102675.34;5043258;28;20028;-72
2023/05/19 05:51:22;;;;;;;164.32;60.22;;;;;;;17.18;42.56;102668.25;5049870;28;20025;-71
2023/05/19 05:53:51;;;;;;;167.18;61.72;;;;;;;17.21;42.50;102673.50;5034797;28;20025;-71
2023/05/19 05:56:17;;;;;;;161.15;60.83;;;;;;;17.22;42.66;102670.84;5017349;28;20036;-72
2023/05/19 05:58:42;;;;;;;161.95;60.45;;;;;;;17.26;42.98;102671.69;5034838;28;20100;-71
2023/05/19 06:01:10;;;;;;;172.18;63.53;;;;;;;17.30;42.86;102668.09;5013656;28;20028;-71
2023/05/19 06:03:40;;;;;;;161.70;62.22;;;;;;;17.34;42.87;102671.56;5047486;28;20025;-70
2023/05/19 06:06:05;;;;;;;162.98;63.20;;;;;;;17.37;42.36;102671.53;5034089;28;20031;-73
2023/05/19 06:08:31;;;;;;;161.63;59.42;;;;;;;17.40;42.11;102672.34;5017685;28;20013;-71
2023/05/19 06:10:57;;;;;;;167.18;63.10;;;;;;;17.46;41.63;102673.16;5032226;28;20028;-71
2023/05/19 06:13:22;;;;;;;156.50;60.45;;;;;;;17.51;41.89;102674.84;5032592;28;20430;-72
2023/05/19 06:15:49;;;;;;;159.25;60.08;;;;;;;17.58;41.75;102665.06;5001300;28;20170;-70
2023/05/19 06:18:14;;;;;;;170.75;61.67;;;;;;;17.64;41.12;102667.63;5032819;28;20079;-71
2023/05/19 06:20:40;;;;;;;162.63;60.75;;;;;;;17.69;41.16;102665.78;5030510;28;20028;-71
2023/05/19 06:23:06;;;;;;;163.90;60.92;;;;;;;17.72;41.12;102671.03;5050026;28;20085;-71
2023/05/19 06:25:31;;;;;;;161.90;61.03;;;;;;;17.85;41.06;102665.56;5032891;28;20025;-71
2023/05/19 06:27:56;;;;;;;160.82;61.65;;;;;;;18.00;41.05;102662.69;5034032;28;20036;-71
2023/05/19 06:30:22;;;;;;;171.93;61.00;;;;;;;18.11;40.04;102669.59;5032492;28;20020;-71
2023/05/19 06:32:47;;;;;;;162.02;60.42;;;;;;;18.17;40.81;102672.13;5029005;28;20028;-71
2023/05/19 06:35:12;;;;;;;168.98;61.00;;;;;;;18.23;40.44;102672.03;5031750;28;20028;-71
2023/05/19 06:37:38;;;;;;;163.32;61.90;;;;;;;18.28;40.28;102671.94;5051434;28;20071;-71
2023/05/19 06:40:04;;;;;;;159.02;61.50;;;;;;;18.35;39.77;102671.81;5030317;28;20039;-71
2023/05/19 06:42:30;;;;;;;163.35;61.80;;;;;;;18.43;40.01;102669.00;5017127;28;20025;-71
2023/05/19 06:44:55;;;;;;;185.63;64.90;;;;;;;18.54;39.72;102676.75;5032401;28;20017;-72
2023/05/19 06:47:20;;;;;;;155.55;60.22;;;;;;;18.70;39.58;102672.06;5043875;28;20025;-71
2023/05/19 06:49:49;;;;;;;170.32;63.13;;;;;;;18.84;39.29;102664.75;5033408;28;20553;-71
2023/05/19 06:52:15;;;;;;;168.73;62.72;;;;;;;18.95;38.99;102672.50;5016321;28;20044;-71
2023/05/19 06:54:41;;;;;;;166.77;64.65;;;;;;;19.02;38.90;102668.81;5007074;28;20029;-71
2023/05/19 06:57:06;;;;;;;160.90;63.22;;;;;;;19.03;38.60;102669.69;5049703;28;20036;-71
2023/05/19 06:59:31;;;;;;;160.32;60.50;;;;;;;19.07;38.90;102682.84;5025215;28;20120;-71
2023/05/19 07:01:57;;;;;;;171.05;61.65;;;;;;;19.08;38.31;102673.97;5032062;28;20037;-70
2023/05/19 07:04:22;;;;;;;175.07;62.40;;;;;;;19.16;37.96;102675.63;5015403;28;20108;-71
2023/05/19 07:06:49;;;;;;;168.40;72.05;;;;;;;19.27;38.33;102681.56;5057406;22;20058;-71
2023/05/19 07:09:15;;;;;;;165.77;69.95;;;;;;;19.42;37.98;102681.22;4995097;28;20030;-70
2023/05/19 07:11:40;;;;;;;165.15;69.70;;;;;;;19.61;37.30;102682.59;5011078;28;20072;-71
2023/05/19 07:14:05;;;;;;;179.00;78.30;;;;;;;19.74;37.42;102674.31;5018724;28;20116;-70
2023/05/19 07:16:30;;;;;;;166.93;71.65;;;;;;;19.71;37.11;102677.03;5004780;28;20506;-70
2023/05/19 07:18:56;;;;;;;166.20;68.47;;;;;;;19.67;37.11;102671.84;5008911;28;20026;-70
2023/05/19 07:21:21;;;;;;;167.35;69.18;;;;;;;19.72;37.49;102664.66;4998220;28;20026;-70
2023/05/19 07:23:46;;;;;;;177.43;69.88;;;;;;;19.84;36.78;102668.84;4973255;28;20041;-70
2023/05/19 07:26:12;;;;;;;164.95;66.68;;;;;;;19.96;36.65;102667.66;5001702;28;20030;-70
2023/05/19 07:28:37;;;;;;;163.65;63.03;;;;;;;20.06;36.87;102672.69;5007385;28;20235;-69
2023/05/19 07:31:02;;;;;;;165.90;63.15;;;;;;;20.14;36.71;102671.63;4975699;28;20025;-69
2023/05/19 07:33:28;;;;;;;165.90;62.00;;;;;;;20.24;36.63;102668.69;5003399;28;20049;-69
2023/05/19 07:35:53;;;;;;;173.90;63.88;;;;;;;20.35;36.11;102670.22;4998320;28;20026;-69
2023/05/19 07:38:18;;;;;;;168.40;63.08;;;;;;;20.45;36.07;102674.38;4996642;28;20025;-69
2023/05/19 07:40:44;;;;;;;155.90;61.17;;;;;;;20.55;35.84;102672.34;4994560;28;20049;-69
2023/05/19 07:43:10;;;;;;;166.27;63.05;;;;;;;20.59;35.45;102668.69;4997602;28;20407;-69
2023/05/19 07:45:36;;;;;;;166.38;61.72;;;;;;;20.65;35.47;102673.81;4993412;28;20022;-70
2023/05/19 07:48:02;;;;;;;166.50;63.20;;;;;;;20.70;35.68;102671.94;4992940;28;20157;-70
2023/05/19 07:50:27;;;;;;;172.90;64.50;;;;;;;20.74;35.37;102668.28;5005013;28;20029;-71
2023/05/19 07:52:52;;;;;;;156.10;61.55;;;;;;;20.76;35.56;102660.28;4999290;28;20026;-69
2023/05/19 07:55:18;;;;;;;167.60;62.97;;;;;;;20.75;35.24;102663.84;4995816;28;20034;-70
2023/05/19 07:57:43;;;;;;;169.93;64.55;;;;;;;20.75;35.55;102664.72;4993721;28;20026;-71
2023/05/19 08:00:11;;;;;;;167.68;63.38;;;;;;;20.73;35.62;102658.56;4999302;28;20442;-70
2023/05/19 08:02:36;;;;;;;161.82;61.95;;;;;;;20.68;35.80;102655.19;4989393;28;20084;-69
2023/05/19 08:05:05;;;;;;;166.88;64.88;;;;;;;20.65;35.75;102657.03;4998104;28;20030;-69
2023/05/19 08:07:31;;;;;;;167.38;63.15;;;;;;;20.62;36.03;102657.97;4992086;28;20034;-70
2023/05/19 08:09:56;;;;;;;165.65;63.45;;;;;;;20.60;36.03;102660.69;5006129;28;20018;-69
2023/05/19 08:12:21;;;;;;;167.77;64.68;;;;;;;20.52;35.89;102662.69;4988969;28;20404;-70
2023/05/19 08:14:47;;;;;;;167.20;64.97;;;;;;;20.49;36.27;102656.56;4985373;28;20026;-69
2023/05/19 08:17:12;;;;;;;164.40;63.13;;;;;;;20.51;36.07;102663.56;4983641;28;20046;-69
2023/05/19 08:19:38;;;;;;;164.73;64.07;;;;;;;20.51;36.00;102660.06;5002787;28;20023;-70
2023/05/19 08:22:03;;;;;;;166.55;62.72;;;;;;;20.53;36.26;102658.22;4994105;28;20085;-69
2023/05/19 08:24:29;;;;;;;159.90;62.28;;;;;;;20.53;36.47;102664.44;4992383;28;20069;-69
2023/05/19 08:26:54;;;;;;;195.80;68.72;;;;;;;20.50;36.11;102658.31;4991745;28;20034;-69
2023/05/19 08:29:20;;;;;;;171.25;63.30;;;;;;;20.45;36.32;102653.16;4994100;28;20025;-69
2023/05/19 08:31:45;;;;;;;163.65;62.28;;;;;;;20.44;36.18;102656.69;5001166;28;20061;-69
2023/05/19 08:34:11;;;;;;;186.10;66.63;;;;;;;20.41;36.41;102651.44;5000266;28;20090;-69
2023/05/19 08:36:36;;;;;;;154.95;61.42;;;;;;;20.39;36.72;102650.63;4994373;28;20062;-69
2023/05/19 08:39:02;;;;;;;167.80;64.88;;;;;;;20.36;36.67;102656.91;4977252;28;20041;-69
2023/05/19 08:41:27;;;;;;;166.05;65.00;;;;;;;20.38;36.57;102640.94;4992053;28;20407;-69
2023/05/19 08:43:53;;;;;;;168.38;66.07;;;;;;;20.39;36.60;102648.84;4986632;28;20038;-70
2023/05/19 08:46:19;;;;;;;177.95;66.28;;;;;;;20.38;36.29;102639.16;4968804;28;20126;-69
2023/05/19 08:48:46;;;;;;;165.27;63.95;;;;;;;20.35;37.02;102638.38;4960421;28;20380;-70
2023/05/19 08:51:34;;;;;;;165.10;67.97;;;;;;;20.33;36.74;102627.78;5005507;28;20479;-70
2023/05/19 08:54:13;;;;;;;163.98;62.92;;;;;;;20.29;36.82;102627.91;5005456;28;20395;-68
2023/05/19 08:56:38;;;;;;;164.40;62.42;;;;;;;20.27;36.83;102625.28;4993851;28;20037;-67
2023/05/19 08:59:05;;;;;;;163.57;62.97;;;;;;;20.28;36.96;102624.38;4987861;28;20434;-69
2023/05/19 09:01:30;;;;;;;161.55;61.45;;;;;;;20.32;36.90;102626.03;5007616;28;20022;-69
2023/05/19 09:03:56;;;;;;;168.65;62.22;;;;;;;20.32;36.94;102627.84;4968257;28;20061;-69
2023/05/19 09:06:22;;;;;;;161.63;62.60;;;;;;;20.33;36.68;102617.19;4988712;28;20030;-69
2023/05/19 09:08:47;;;;;;;165.35;62.30;;;;;;;20.33;36.54;102625.13;4992739;28;20029;-69
2023/05/19 09:11:13;;;;;;;166.25;62.85;;;;;;;20.36;36.58;102617.09;5008845;28;20033;-69
2023/05/19 09:13:38;;;;;;;156.73;60.88;;;;;;;20.34;36.65;102618.94;5012547;28;20034;-69
2023/05/19 09:16:04;;;;;;;164.25;61.50;;;;;;;20.30;36.65;102611.97;4977973;28;20023;-69
2023/05/19 09:18:32;;;;;;;175.40;62.70;;;;;;;20.29;36.98;102615.53;4984038;28;20041;-69
2023/05/19 09:21:01;;;;;;;173.75;64.60;;;;;;;20.28;36.69;102621.72;5004007;28;20026;-69
2023/05/19 09:23:32;;;;;;;172.75;63.65;;;;;;;20.27;36.74;102622.63;4979562;28;20475;-69
2023/05/19 09:26:02;;;;;;;168.52;62.90;;;;;;;20.25;36.90;102616.50;4994125;28;20037;-68
2023/05/19 09:28:30;;;;;;;171.73;63.47;;;;;;;20.24;36.72;102617.41;4984426;28;20084;-69
2023/05/19 09:30:58;;;;;;;162.05;61.15;;;;;;;20.23;36.80;102607.72;5002211;28;20026;-69
2023/05/19 09:33:24;;;;;;;178.57;64.68;;;;;;;20.22;37.14;102611.25;4995526;28;20127;-70
2023/05/19 09:35:49;;;;;;;163.02;62.25;;;;;;;20.21;37.02;102604.25;4973624;28;20491;-70
2023/05/19 09:38:18;;;;;;;165.25;61.78;;;;;;;20.21;37.09;102606.91;4991637;28;20523;-70
2023/05/19 09:40:43;;;;;;;161.10;61.63;;;;;;;20.18;37.20;102607.84;4996941;28;20066;-70
2023/05/19 09:43:09;;;;;;;163.10;61.17;;;;;;;20.17;36.85;102610.53;4993310;28;20561;-69
2023/05/19 09:45:35;;;;;;;161.35;61.17;;;;;;;20.15;37.08;102604.38;4974887;28;20030;-69
2023/05/19 09:48:03;;;;;;;161.70;61.80;;;;;;;20.14;36.97;102603.53;4998190;28;20033;-70
2023/05/19 09:50:29;;;;;;;170.98;62.92;;;;;;;20.10;37.02;102602.72;4994228;28;20498;-70
2023/05/19 09:52:55;;;;;;;173.18;64.45;;;;;;;20.07;37.48;102599.31;5005646;28;20479;-70
2023/05/19 09:55:24;;;;;;;165.63;62.95;;;;;;;20.04;37.35;102594.94;4998216;28;20419;-70
2023/05/19 09:57:51;;;;;;;166.38;63.33;;;;;;;20.01;37.80;102594.16;4997577;28;20025;-69
2023/05/19 10:00:17;;;;;;;169.77;63.78;;;;;;;19.99;37.65;102599.50;4998102;28;20033;-70
2023/05/19 10:02:46;;;;;;;165.60;61.50;;;;;;;19.97;37.44;102596.00;5003376;28;20363;-70
2023/05/19 10:05:19;;;;;;;176.07;64.82;;;;;;;19.94;37.79;102585.47;4984333;28;20026;-71
2023/05/19 10:07:53;;;;;;;155.88;60.47;;;;;;;19.93;37.42;102586.38;4982093;28;20217;-70
2023/05/19 10:10:19;;;;;;;163.98;62.45;;;;;;;19.90;37.80;102583.81;4989540;28;20059;-70
2023/05/19 10:12:45;;;;;;;167.95;63.03;;;;;;;19.88;37.55;102586.50;4979014;28;20030;-70
2023/05/19 10:15:13;;;;;;;163.68;61.03;;;;;;;19.86;37.92;102583.00;4995488;28;20022;-70
2023/05/19 10:17:40;;;;;;;167.48;62.55;;;;;;;19.84;37.61;102584.00;4996085;28;20076;-70
2023/05/19 10:20:11;;;;;;;156.75;61.60;;;;;;;19.83;37.69;102576.94;4992687;28;20027;-70
2023/05/19 10:22:37;;;;;;;160.55;61.72;;;;;;;19.80;37.73;102577.88;4992912;28;20029;-69
2023/05/19 10:25:03;;;;;;;169.63;62.72;;;;;;;19.76;37.70;102569.09;4994034;28;20032;-69
2023/05/19 10:27:30;;;;;;;162.45;62.45;;;;;;;19.74;38.33;102570.91;4999414;28;20030;-69
2023/05/19 10:29:59;;;;;;;163.25;62.00;;;;;;;19.73;38.24;102569.16;5005503;28;20028;-70
2023/05/19 10:32:30;;;;;;;165.20;62.67;;;;;;;19.70;38.46;102566.59;4978799;28;20041;-69
2023/05/19 10:35:27;;;;;;;173.52;64.18;;;;;;;19.68;38.33;102564.91;4993294;28;20026;-72
2023/05/19 10:38:41;;;;;;;162.30;63.10;;;;;;;19.64;38.15;102561.44;4994226;28;20391;-69
2023/05/19 10:41:33;;;;;;;159.02;61.08;;;;;;;19.59;37.87;102558.03;4969974;28;20112;-70
2023/05/19 10:44:08;;;;;;;162.45;62.35;;;;;;;19.57;38.62;102555.41;4985996;28;20077;-70
2023/05/19 10:46:34;;;;;;;162.88;64.90;;;;;;;19.53;38.39;102559.06;4994199;28;20017;-69
2023/05/19 10:49:00;;;;;;;162.15;61.03;;;;;;;19.52;38.55;102556.44;4995774;28;20494;-69
2023/05/19 10:51:33;;;;;;;170.75;64.35;;;;;;;19.49;38.18;102559.19;4991914;28;20026;-70
2023/05/19 10:54:01;;;;;;;177.85;66.00;;;;;;;19.45;38.34;102558.38;5006068;28;20100;-70
2023/05/19 10:56:32;;;;;;;159.88;60.33;;;;;;;19.41;38.72;102560.25;4995034;28;20028;-70
2023/05/19 10:58:58;;;;;;;160.55;61.88;;;;;;;19.35;38.73;102563.03;4976378;28;20045;-70
2023/05/19 11:01:32;;;;;;;161.13;62.25;;;;;;;19.33;38.93;102561.31;4993104;28;20479;-70